createdAt,value
2022-11-01T00:01:07.056Z,20.87
2022-11-01T00:03:35.469Z,20.92
2022-11-01T00:06:01.798Z,20.96
2022-11-01T00:08:28.482Z,21.02
2022-11-01T00:11:01.333Z,21.07
2022-11-01T00:13:27.616Z,21.14
2022-11-01T00:15:53.887Z,21.20
2022-11-01T00:18:21.520Z,21.29
2022-11-01T00:20:48.470Z,21.42
2022-11-01T00:23:14.713Z,21.58
2022-11-01T00:25:41.305Z,21.74
2022-11-01T00:28:07.597Z,21.92
2022-11-01T00:30:37.276Z,22.11
2022-11-01T00:33:04.087Z,22.29
2022-11-01T00:35:34.198Z,22.45
2022-11-01T00:38:00.997Z,22.61
2022-11-01T00:40:27.700Z,22.76
2022-11-01T00:42:53.971Z,22.87
2022-11-01T00:45:20.410Z,22.98
2022-11-01T00:47:47.404Z,23.06
2022-11-01T00:50:14.048Z,23.16
2022-11-01T00:52:40.531Z,23.24
2022-11-01T00:55:07.025Z,23.30
2022-11-01T00:57:35.331Z,23.37
2022-11-01T01:00:02.131Z,23.43
2022-11-01T01:02:28.603Z,23.47
2022-11-01T01:04:55.098Z,23.50
2022-11-01T01:07:21.332Z,23.53
2022-11-01T01:09:48.732Z,23.54
2022-11-01T01:12:14.994Z,23.56
2022-11-01T01:14:41.401Z,23.58
2022-11-01T01:17:07.855Z,23.60
2022-11-01T01:19:34.345Z,23.60
2022-11-01T01:22:01.104Z,23.62
2022-11-01T01:24:27.729Z,23.64
2022-11-01T01:26:54.155Z,23.64
2022-11-01T01:29:20.628Z,23.64
2022-11-01T01:31:46.926Z,23.64
2022-11-01T01:34:16.057Z,23.65
2022-11-01T01:36:42.588Z,23.65
2022-11-01T01:39:09.421Z,23.65
2022-11-01T01:41:54.452Z,23.65
2022-11-01T01:44:39.757Z,23.62
2022-11-01T01:47:06.646Z,23.62
2022-11-01T01:49:33.051Z,23.59
2022-11-01T01:51:59.481Z,23.56
2022-11-01T01:54:26.379Z,23.53
2022-11-01T01:56:52.988Z,23.55
2022-11-01T01:59:20.627Z,23.54
2022-11-01T02:01:47.022Z,23.53
2022-11-01T02:04:25.860Z,23.53
2022-11-01T02:06:52.792Z,23.51
2022-11-01T02:09:19.399Z,23.49
2022-11-01T02:11:45.716Z,23.47
2022-11-01T02:14:14.112Z,23.45
2022-11-01T02:16:56.740Z,23.42
2022-11-01T02:19:42.437Z,23.40
2022-11-01T02:22:17.433Z,23.38
2022-11-01T02:24:43.700Z,23.35
2022-11-01T02:27:28.856Z,23.34
2022-11-01T02:30:09.221Z,23.32
2022-11-01T02:32:38.741Z,23.31
2022-11-01T02:35:26.362Z,23.29
2022-11-01T02:37:55.705Z,23.27
2022-11-01T02:40:28.448Z,23.26
2022-11-01T02:42:59.105Z,23.27
2022-11-01T02:45:32.275Z,23.27
2022-11-01T02:47:59.593Z,23.26
2022-11-01T02:50:30.716Z,23.27
2022-11-01T02:52:57.419Z,23.28
2022-11-01T02:55:30.328Z,23.28
2022-11-01T02:58:07.440Z,23.27
2022-11-01T03:00:35.414Z,23.27
2022-11-01T03:03:04.644Z,23.27
2022-11-01T03:05:37.844Z,23.27
2022-11-01T03:08:05.893Z,23.25
2022-11-01T03:10:51.237Z,23.24
2022-11-01T03:13:32.728Z,23.22
2022-11-01T03:16:06.790Z,23.18
2022-11-01T03:18:35.355Z,23.18
2022-11-01T03:21:15.449Z,23.16
2022-11-01T03:24:02.079Z,23.16
2022-11-01T03:26:29.452Z,23.17
2022-11-01T03:28:59.082Z,23.17
2022-11-01T03:31:28.038Z,23.19
2022-11-01T03:33:57.163Z,23.21
2022-11-01T03:36:24.593Z,23.24
2022-11-01T03:38:59.756Z,23.26
2022-11-01T03:41:30.459Z,23.29
2022-11-01T03:43:56.792Z,23.30
2022-11-01T03:46:23.250Z,23.31
2022-11-01T03:48:49.506Z,23.34
2022-11-01T03:51:15.767Z,23.34
2022-11-01T03:53:42.020Z,23.35
2022-11-01T03:56:08.858Z,23.38
2022-11-01T03:58:41.965Z,23.38
2022-11-01T04:01:09.109Z,23.39
2022-11-01T04:03:36.103Z,23.41
2022-11-01T04:06:02.477Z,23.42
2022-11-01T04:08:28.896Z,23.42
2022-11-01T04:10:55.284Z,23.44
2022-11-01T04:13:21.637Z,23.46
2022-11-01T04:16:06.439Z,23.46
2022-11-01T04:18:51.451Z,23.47
2022-11-01T04:21:20.716Z,23.48
2022-11-01T04:23:48.071Z,23.47
2022-11-01T04:26:21.708Z,23.48
2022-11-01T04:28:57.802Z,23.48
2022-11-01T04:31:29.022Z,23.48
2022-11-01T04:33:56.128Z,23.47
2022-11-01T04:36:22.606Z,23.48
2022-11-01T04:38:52.603Z,23.47
2022-11-01T04:41:19.622Z,23.46
2022-11-01T04:43:47.061Z,23.44
2022-11-01T04:46:13.561Z,23.42
2022-11-01T04:48:39.936Z,23.41
2022-11-01T04:51:06.389Z,23.40
2022-11-01T04:53:32.709Z,23.38
2022-11-01T04:55:59.140Z,23.37
2022-11-01T04:58:25.359Z,23.34
2022-11-01T05:00:52.063Z,23.33
2022-11-01T05:03:18.537Z,23.32
2022-11-01T05:05:44.782Z,23.32
2022-11-01T05:08:12.377Z,23.31
2022-11-01T05:10:40.007Z,23.32
2022-11-01T05:13:06.911Z,23.33
2022-11-01T05:15:33.724Z,23.32
2022-11-01T05:18:01.882Z,23.32
2022-11-01T05:20:29.147Z,23.32
2022-11-01T05:23:02.669Z,23.32
2022-11-01T05:25:31.449Z,23.31
2022-11-01T05:28:01.505Z,23.30
2022-11-01T05:30:27.989Z,23.28
2022-11-01T05:32:58.488Z,23.24
2022-11-01T05:35:24.794Z,23.22
2022-11-01T05:37:51.204Z,23.21
2022-11-01T05:40:17.636Z,23.17
2022-11-01T05:42:44.056Z,23.15
2022-11-01T05:45:10.731Z,23.11
2022-11-01T05:47:40.246Z,23.09
2022-11-01T05:50:07.576Z,23.05
2022-11-01T05:52:33.989Z,23.04
2022-11-01T05:55:00.278Z,23.00
2022-11-01T05:57:29.711Z,22.97
2022-11-01T05:59:59.418Z,22.95
2022-11-01T06:02:25.899Z,22.91
2022-11-01T06:04:52.171Z,22.87
2022-11-01T06:07:18.435Z,22.84
2022-11-01T06:09:44.717Z,22.82
2022-11-01T06:12:10.924Z,22.82
2022-11-01T06:14:37.352Z,22.78
2022-11-01T06:17:06.165Z,22.80
2022-11-01T06:19:32.805Z,22.80
2022-11-01T06:21:59.079Z,22.80
2022-11-01T06:24:26.762Z,22.80
2022-11-01T06:26:53.035Z,22.81
2022-11-01T06:29:19.490Z,22.82
2022-11-01T06:31:45.743Z,22.82
2022-11-01T06:34:12.192Z,22.82
2022-11-01T06:36:38.454Z,22.83
2022-11-01T06:39:04.746Z,22.83
2022-11-01T06:41:31.160Z,22.85
2022-11-01T06:43:57.453Z,22.84
2022-11-01T06:46:23.675Z,22.85
2022-11-01T06:48:50.142Z,22.86
2022-11-01T06:51:16.606Z,22.88
2022-11-01T06:53:43.191Z,22.88
2022-11-01T06:56:09.396Z,22.88
2022-11-01T06:58:35.805Z,22.91
2022-11-01T07:01:02.992Z,22.91
2022-11-01T07:03:29.355Z,22.92
2022-11-01T07:05:55.789Z,22.92
2022-11-01T07:08:22.012Z,22.94
2022-11-01T07:10:50.085Z,22.93
2022-11-01T07:13:16.532Z,22.96
2022-11-01T07:15:42.943Z,22.95
2022-11-01T07:18:09.494Z,22.96
2022-11-01T07:20:41.521Z,22.97
2022-11-01T07:23:15.479Z,22.98
2022-11-01T07:25:42.101Z,23.00
2022-11-01T07:28:08.549Z,22.99
2022-11-01T07:30:34.944Z,23.01
2022-11-01T07:33:04.111Z,23.02
2022-11-01T07:35:30.678Z,23.04
2022-11-01T07:38:02.760Z,23.05
2022-11-01T07:40:31.689Z,23.04
2022-11-01T07:42:59.910Z,23.02
2022-11-01T07:45:27.256Z,23.00
2022-11-01T07:47:53.819Z,22.97
2022-11-01T07:50:20.101Z,22.95
2022-11-01T07:52:46.314Z,22.89
2022-11-01T07:55:12.744Z,22.84
2022-11-01T07:57:39.659Z,22.80
2022-11-01T08:00:06.691Z,22.74
2022-11-01T08:02:33.586Z,22.67
2022-11-01T08:04:59.972Z,22.59
2022-11-01T08:07:26.392Z,22.52
2022-11-01T08:09:52.812Z,22.45
2022-11-01T08:12:19.108Z,22.38
2022-11-01T08:14:45.360Z,22.28
2022-11-01T08:17:11.587Z,22.21
2022-11-01T08:19:37.919Z,22.14
2022-11-01T08:22:04.238Z,22.07
2022-11-01T08:24:30.479Z,22.00
2022-11-01T08:26:56.857Z,21.95
2022-11-01T08:29:23.120Z,21.91
2022-11-01T08:31:49.528Z,21.89
2022-11-01T08:34:16.885Z,21.87
2022-11-01T08:36:43.476Z,21.86
2022-11-01T08:41:41.066Z,21.87
2022-11-01T08:44:07.504Z,21.90
2022-11-01T08:46:33.795Z,21.91
2022-11-01T08:49:00.650Z,21.93
2022-11-01T08:51:27.508Z,21.95
2022-11-01T08:53:56.976Z,21.99
2022-11-01T08:56:25.060Z,22.03
2022-11-01T08:58:51.901Z,22.06
2022-11-01T09:01:18.338Z,22.08
2022-11-01T09:03:45.017Z,22.11
2022-11-01T09:06:11.475Z,22.13
2022-11-01T09:08:37.692Z,22.15
2022-11-01T09:11:05.974Z,22.18
2022-11-01T09:13:32.712Z,22.19
2022-11-01T09:16:01.478Z,22.21
2022-11-01T09:18:29.026Z,22.23
2022-11-01T09:20:55.973Z,22.27
2022-11-01T09:23:22.257Z,22.29
2022-11-01T09:25:48.539Z,22.32
2022-11-01T09:28:14.748Z,22.38
2022-11-01T09:30:49.629Z,22.39
2022-11-01T09:33:23.512Z,22.41
2022-11-01T09:35:54.098Z,22.44
2022-11-01T09:38:24.428Z,22.45
2022-11-01T09:40:59.064Z,22.45
2022-11-01T09:43:27.848Z,22.48
2022-11-01T09:45:55.716Z,22.48
2022-11-01T09:48:25.615Z,22.46
2022-11-01T09:50:52.051Z,22.49
2022-11-01T09:53:24.630Z,22.50
2022-11-01T09:55:57.214Z,22.51
2022-11-01T09:58:34.091Z,22.52
2022-11-01T10:01:06.337Z,22.53
2022-11-01T10:03:35.830Z,22.52
2022-11-01T10:06:08.781Z,22.56
2022-11-01T10:08:41.162Z,22.56
2022-11-01T10:11:19.008Z,22.57
2022-11-01T10:13:48.411Z,22.56
2022-11-01T10:16:14.817Z,22.56
2022-11-01T10:18:59.803Z,22.57
2022-11-01T10:21:29.772Z,22.60
2022-11-01T10:23:59.103Z,22.62
2022-11-01T10:26:26.939Z,22.64
2022-11-01T10:28:53.191Z,22.65
2022-11-01T10:31:22.664Z,22.67
2022-11-01T10:33:52.248Z,22.69
2022-11-01T10:36:21.159Z,22.74
2022-11-01T10:39:29.968Z,22.76
2022-11-01T10:41:42.206Z,22.78
2022-11-01T10:44:28.708Z,22.81
2022-11-01T10:46:55.497Z,22.84
2022-11-01T10:49:40.441Z,22.87
2022-11-01T10:52:17.584Z,22.90
2022-11-01T10:54:45.119Z,22.92
2022-11-01T10:57:15.147Z,22.95
2022-11-01T10:59:43.230Z,23.00
2022-11-01T11:02:23.803Z,23.03
2022-11-01T11:04:50.353Z,23.05
2022-11-01T11:07:21.334Z,23.10
2022-11-01T11:09:51.279Z,23.15
2022-11-01T11:12:19.131Z,23.18
2022-11-01T11:14:47.229Z,23.23
2022-11-01T11:17:33.765Z,23.26
2022-11-01T11:20:05.537Z,23.31
2022-11-01T11:22:36.342Z,23.34
2022-11-01T11:25:03.237Z,23.37
2022-11-01T11:27:31.058Z,23.40
2022-11-01T11:29:59.000Z,23.42
2022-11-01T11:32:27.343Z,23.44
2022-11-01T11:34:58.169Z,23.47
2022-11-01T11:37:26.677Z,23.49
2022-11-01T11:40:01.177Z,23.52
2022-11-01T11:42:27.600Z,23.54
2022-11-01T11:44:55.854Z,23.56
2022-11-01T11:47:24.709Z,23.60
2022-11-01T11:49:53.855Z,23.64
2022-11-01T11:52:28.812Z,23.65
2022-11-01T11:54:56.593Z,23.67
2022-11-01T11:57:29.753Z,23.68
2022-11-01T11:59:58.883Z,23.70
2022-11-01T12:02:30.811Z,23.73
2022-11-01T12:05:03.517Z,23.75
2022-11-01T12:07:37.072Z,23.77
2022-11-01T12:10:07.413Z,23.79
2022-11-01T12:12:42.691Z,23.80
2022-11-01T12:15:26.177Z,23.82
2022-11-01T12:17:53.288Z,23.82
2022-11-01T12:20:35.727Z,23.82
2022-11-01T12:23:14.577Z,23.84
2022-11-01T12:25:42.977Z,23.85
2022-11-01T12:28:23.123Z,23.87
2022-11-01T12:30:51.339Z,23.89
2022-11-01T12:33:43.885Z,23.89
2022-11-01T12:36:11.613Z,23.90
2022-11-01T12:38:54.721Z,23.92
2022-11-01T12:41:20.943Z,23.91
2022-11-01T12:44:06.013Z,23.92
2022-11-01T12:46:47.047Z,23.93
2022-11-01T12:49:29.488Z,23.93
2022-11-01T12:51:58.654Z,23.95
2022-11-01T12:54:29.229Z,23.96
2022-11-01T12:56:56.598Z,23.95
2022-11-01T12:59:34.404Z,23.93
2022-11-01T13:02:19.726Z,23.94
2022-11-01T13:04:49.297Z,23.92
2022-11-01T13:07:21.691Z,23.92
2022-11-01T13:09:47.933Z,23.93
2022-11-01T13:12:22.894Z,23.92
2022-11-01T13:15:03.697Z,23.89
2022-11-01T13:17:32.797Z,23.88
2022-11-01T13:20:14.573Z,23.85
2022-11-01T13:23:00.147Z,23.84
2022-11-01T13:25:26.645Z,23.83
2022-11-01T13:28:11.591Z,23.83
2022-11-01T13:30:39.950Z,23.81
2022-11-01T13:33:14.977Z,23.82
2022-11-01T13:36:03.296Z,23.81
2022-11-01T13:38:44.806Z,23.80
2022-11-01T13:41:19.673Z,23.79
2022-11-01T13:43:49.831Z,23.79
2022-11-01T13:46:30.782Z,23.78
2022-11-01T13:49:20.085Z,23.77
2022-11-01T13:51:57.686Z,23.78
2022-11-01T13:54:24.153Z,23.78
2022-11-01T13:56:55.083Z,23.76
2022-11-01T13:59:32.478Z,23.76
2022-11-01T14:02:31.044Z,23.75
2022-11-01T14:04:58.698Z,23.74
2022-11-01T14:07:25.852Z,23.72
2022-11-01T14:09:53.070Z,23.70
2022-11-01T14:12:30.612Z,23.70
2022-11-01T14:15:09.677Z,23.69
2022-11-01T14:17:35.992Z,23.70
2022-11-01T14:20:06.484Z,23.69
2022-11-01T14:22:33.527Z,23.68
2022-11-01T14:25:01.654Z,23.67
2022-11-01T14:27:27.894Z,23.66
2022-11-01T14:29:55.183Z,23.65
2022-11-01T14:32:23.099Z,23.65
2022-11-01T14:35:09.761Z,23.60
2022-11-01T14:37:38.420Z,23.59
2022-11-01T14:40:23.558Z,23.59
2022-11-01T14:42:52.125Z,23.57
2022-11-01T14:45:35.878Z,23.54
2022-11-01T14:48:21.498Z,23.51
2022-11-01T14:50:52.351Z,23.50
2022-11-01T14:53:19.966Z,23.47
2022-11-01T14:55:46.237Z,23.46
2022-11-01T14:58:20.330Z,23.44
2022-11-01T15:00:48.470Z,23.40
2022-11-01T15:03:15.259Z,23.38
2022-11-01T15:05:43.356Z,23.34
2022-11-01T15:08:28.121Z,23.31
2022-11-01T15:10:56.149Z,23.26
2022-11-01T15:13:23.574Z,23.23
2022-11-01T15:16:01.809Z,23.18
2022-11-01T15:18:28.478Z,23.13
2022-11-01T15:20:56.384Z,23.08
2022-11-01T15:23:28.603Z,23.05
2022-11-01T15:25:56.548Z,23.00
2022-11-01T15:28:26.334Z,22.96
2022-11-01T15:30:55.896Z,22.92
2022-11-01T15:33:24.218Z,22.87
2022-11-01T15:35:59.357Z,22.83
2022-11-01T15:38:27.131Z,22.78
2022-11-01T15:40:53.660Z,22.73
2022-11-01T15:43:19.913Z,22.68
2022-11-01T15:45:49.195Z,22.61
2022-11-01T15:48:18.499Z,22.56
2022-11-01T15:51:01.728Z,22.51
2022-11-01T15:53:30.439Z,22.43
2022-11-01T15:56:09.940Z,22.38
2022-11-01T15:58:38.815Z,22.30
2022-11-01T16:01:13.512Z,22.23
2022-11-01T16:03:45.161Z,22.16
2022-11-01T16:06:17.471Z,22.10
2022-11-01T16:08:50.858Z,22.03
2022-11-01T16:11:22.493Z,21.97
2022-11-01T16:13:54.581Z,21.91
2022-11-01T16:16:21.011Z,21.86
2022-11-01T16:18:49.497Z,21.79
2022-11-01T16:21:18.757Z,21.74
2022-11-01T16:24:09.972Z,21.68
2022-11-01T16:26:51.622Z,21.60
2022-11-01T16:29:17.980Z,21.54
2022-11-01T16:31:44.284Z,21.48
2022-11-01T16:34:22.601Z,21.43
2022-11-01T16:36:48.844Z,21.38
2022-11-01T16:39:24.322Z,21.32
2022-11-01T16:41:52.207Z,21.27
2022-11-01T16:44:18.920Z,21.24
2022-11-01T16:46:45.249Z,21.21
2022-11-01T16:49:19.676Z,21.16
2022-11-01T16:51:45.953Z,21.12
2022-11-01T16:54:12.759Z,21.09
2022-11-01T16:56:41.591Z,21.05
2022-11-01T16:59:16.671Z,21.01
2022-11-01T17:01:45.105Z,20.97
2022-11-01T17:04:11.925Z,20.93
2022-11-01T17:06:39.288Z,20.91
2022-11-01T17:09:10.487Z,20.89
2022-11-01T17:11:36.697Z,20.86
2022-11-01T17:14:02.973Z,20.84
2022-11-01T17:16:29.436Z,20.82
2022-11-01T17:18:57.545Z,20.79
2022-11-01T17:21:24.012Z,20.76
2022-11-01T17:23:51.101Z,20.75
2022-11-01T17:26:19.174Z,20.72
2022-11-01T17:28:49.655Z,20.70
2022-11-01T17:31:18.653Z,20.69
2022-11-01T17:33:45.078Z,20.66
2022-11-01T17:36:15.419Z,20.62
2022-11-01T17:38:41.880Z,20.60
2022-11-01T17:41:10.580Z,20.57
2022-11-01T17:43:37.025Z,20.54
2022-11-01T17:46:03.479Z,20.51
2022-11-01T17:48:29.987Z,20.50
2022-11-01T17:51:00.273Z,20.48
2022-11-01T17:53:26.501Z,20.46
2022-11-01T17:55:55.496Z,20.45
2022-11-01T17:58:21.909Z,20.42
2022-11-01T18:00:48.436Z,20.39
2022-11-01T18:03:17.687Z,20.38
2022-11-01T18:05:44.100Z,20.36
2022-11-01T18:08:17.855Z,20.35
2022-11-01T18:10:55.531Z,20.32
2022-11-01T18:13:31.327Z,20.31
2022-11-01T18:16:05.582Z,20.29
2022-11-01T18:18:47.784Z,20.26
2022-11-01T18:21:31.672Z,20.25
2022-11-01T18:24:00.995Z,20.22
2022-11-01T18:26:29.445Z,20.20
2022-11-01T18:29:11.196Z,20.18
2022-11-01T18:31:40.850Z,20.18
2022-11-01T18:34:20.851Z,20.15
2022-11-01T18:36:52.284Z,20.14
2022-11-01T18:39:37.981Z,20.13
2022-11-01T18:42:08.858Z,20.10
2022-11-01T18:44:35.370Z,20.08
2022-11-01T18:47:08.047Z,20.07
2022-11-01T18:49:35.331Z,20.05
2022-11-01T18:52:01.961Z,20.05
2022-11-01T18:54:33.245Z,20.04
2022-11-01T18:57:07.604Z,20.01
2022-11-01T18:59:36.792Z,19.99
2022-11-01T19:02:12.453Z,19.98
2022-11-01T19:04:39.796Z,19.97
2022-11-01T19:07:12.344Z,19.95
2022-11-01T19:09:40.965Z,19.93
2022-11-01T19:12:15.577Z,19.92
2022-11-01T19:14:43.059Z,19.90
2022-11-01T19:17:18.425Z,19.88
2022-11-01T19:19:44.801Z,19.85
2022-11-01T19:22:26.282Z,19.85
2022-11-01T19:24:52.549Z,19.83
2022-11-01T19:27:21.746Z,19.82
2022-11-01T19:29:51.876Z,19.80
2022-11-01T19:32:23.120Z,19.76
2022-11-01T19:34:52.648Z,19.76
2022-11-01T19:37:25.786Z,19.75
2022-11-01T19:39:52.869Z,19.72
2022-11-01T19:42:23.116Z,19.70
2022-11-01T19:44:49.747Z,19.68
2022-11-01T19:47:24.986Z,19.67
2022-11-01T19:49:51.220Z,19.65
2022-11-01T19:52:36.540Z,19.62
2022-11-01T19:55:20.133Z,19.62
2022-11-01T19:57:46.400Z,19.60
2022-11-01T20:00:19.475Z,19.59
2022-11-01T20:02:50.073Z,19.57
2022-11-01T20:05:26.243Z,19.55
2022-11-01T20:07:54.855Z,19.52
2022-11-01T20:10:21.589Z,19.50
2022-11-01T20:12:47.900Z,19.49
2022-11-01T20:15:14.386Z,19.48
2022-11-01T20:17:40.847Z,19.48
2022-11-01T20:20:07.438Z,19.46
2022-11-01T20:22:34.133Z,19.45
2022-11-01T20:25:00.872Z,19.43
2022-11-01T20:27:29.629Z,19.42
2022-11-01T20:29:55.904Z,19.40
2022-11-01T20:32:22.178Z,19.39
2022-11-01T20:34:48.421Z,19.38
2022-11-01T20:37:28.037Z,19.36
2022-11-01T20:39:54.888Z,19.36
2022-11-01T20:42:21.222Z,19.35
2022-11-01T20:44:47.441Z,19.35
2022-11-01T20:47:14.694Z,19.35
2022-11-01T20:49:40.900Z,19.34
2022-11-01T20:52:38.135Z,19.34
2022-11-01T20:54:53.402Z,19.33
2022-11-01T20:57:27.497Z,19.33
2022-11-01T20:59:55.656Z,19.33
2022-11-01T21:02:23.538Z,19.34
2022-11-01T21:05:09.359Z,19.34
2022-11-01T21:07:36.001Z,19.37
2022-11-01T21:10:02.501Z,19.38
2022-11-01T21:12:28.896Z,19.39
2022-11-01T21:14:56.691Z,19.41
2022-11-01T21:17:22.934Z,19.44
2022-11-01T21:19:53.403Z,19.45
2022-11-01T21:22:20.811Z,19.47
2022-11-01T21:24:49.289Z,19.48
2022-11-01T21:27:23.068Z,19.49
2022-11-01T21:29:49.850Z,19.49
2022-11-01T21:32:35.127Z,19.49
2022-11-01T21:35:21.366Z,19.48
2022-11-01T21:37:50.195Z,19.47
2022-11-01T21:40:47.444Z,19.46
2022-11-01T21:43:22.586Z,19.44
2022-11-01T21:45:48.880Z,19.44
2022-11-01T21:48:28.928Z,19.41
2022-11-01T21:50:56.337Z,19.40
2022-11-01T21:53:25.005Z,19.40
2022-11-01T21:55:51.290Z,19.38
2022-11-01T21:58:18.622Z,19.37
2022-11-01T22:00:44.907Z,19.37
2022-11-01T22:03:11.138Z,19.37
2022-11-01T22:05:37.571Z,19.35
2022-11-01T22:08:03.895Z,19.35
2022-11-01T22:10:30.142Z,19.35
2022-11-01T22:12:56.403Z,19.35
2022-11-01T22:15:22.613Z,19.34
2022-11-01T22:17:49.037Z,19.34
2022-11-01T22:20:15.512Z,19.33
2022-11-01T22:22:41.927Z,19.32
2022-11-01T22:25:08.500Z,19.32
2022-11-01T22:27:34.941Z,19.32
2022-11-01T22:30:01.284Z,19.32
2022-11-01T22:32:27.717Z,19.30
2022-11-01T22:34:53.976Z,19.30
2022-11-01T22:37:20.406Z,19.30
2022-11-01T22:39:52.060Z,19.29
2022-11-01T22:42:19.570Z,19.28
2022-11-01T22:44:47.108Z,19.28
2022-11-01T22:47:27.026Z,19.27
2022-11-01T22:49:54.764Z,19.26
2022-11-01T22:52:44.356Z,19.24
2022-11-01T22:55:10.845Z,19.23
2022-11-01T22:57:58.318Z,19.21
2022-11-01T23:00:32.135Z,19.19
2022-11-01T23:03:00.365Z,19.19
2022-11-01T23:05:26.981Z,19.17
2022-11-01T23:07:58.482Z,19.17
2022-11-01T23:10:32.406Z,19.18
2022-11-01T23:13:29.646Z,19.15
2022-11-01T23:15:58.344Z,19.15
2022-11-01T23:18:30.388Z,19.16
2022-11-01T23:20:57.959Z,19.16
2022-11-01T23:23:24.561Z,19.16
2022-11-01T23:25:51.550Z,19.17
2022-11-01T23:28:18.021Z,19.19
2022-11-01T23:30:45.460Z,19.22
2022-11-01T23:33:12.932Z,19.24
2022-11-01T23:35:41.614Z,19.26
2022-11-01T23:38:19.807Z,19.27
2022-11-01T23:40:46.185Z,19.30
2022-11-01T23:43:24.205Z,19.33
2022-11-01T23:45:50.900Z,19.35
2022-11-01T23:48:18.883Z,19.38
2022-11-01T23:50:45.164Z,19.40
2022-11-01T23:53:14.910Z,19.43
2022-11-01T23:55:43.997Z,19.46
2022-11-01T23:58:12.703Z,19.49
